sensor_id;sensor_type;location;lat;lon;timestamp;P1;durP1;ratioP1;P2;durP2;ratioP2
15806;SDS011;8005;51.368;6.140;2023-03-04T00:14:29;11.93;;;2.42;;
15806;SDS011;8005;51.368;6.140;2023-03-04T00:16:01;20.33;;;3.15;;
15806;SDS011;8005;51.368;6.140;2023-03-04T00:17:33;12.98;;;2.58;;
15806;SDS011;8005;51.368;6.140;2023-03-04T00:19:09;18.63;;;3.40;;
15806;SDS011;8005;51.368;6.140;2023-03-04T00:20:41;15.10;;;2.30;;
15806;SDS011;8005;51.368;6.140;2023-03-04T00:22:14;14.15;;;3.15;;
15806;SDS011;8005;51.368;6.140;2023-03-04T00:23:46;12.80;;;2.63;;
15806;SDS011;8005;51.368;6.140;2023-03-04T00:25:18;16.73;;;2.40;;
15806;SDS011;8005;51.368;6.140;2023-03-04T00:26:50;13.18;;;2.80;;
15806;SDS011;8005;51.368;6.140;2023-03-04T00:28:25;17.65;;;2.65;;
15806;SDS011;8005;51.368;6.140;2023-03-04T00:29:59;18.45;;;2.47;;
15806;SDS011;8005;51.368;6.140;2023-03-04T00:31:31;10.93;;;2.50;;
15806;SDS011;8005;51.368;6.140;2023-03-04T00:33:03;15.00;;;3.30;;
15806;SDS011;8005;51.368;6.140;2023-03-04T00:49:44;15.30;;;2.88;;
15806;SDS011;8005;51.368;6.140;2023-03-04T00:55:40;12.02;;;4.30;;
15806;SDS011;8005;51.368;6.140;2023-03-04T01:08:36;15.32;;;3.75;;
15806;SDS011;8005;51.368;6.140;2023-03-04T01:10:48;20.02;;;3.53;;
15806;SDS011;8005;51.368;6.140;2023-03-04T01:12:41;18.13;;;3.65;;
15806;SDS011;8005;51.368;6.140;2023-03-04T01:14:35;14.60;;;3.13;;
15806;SDS011;8005;51.368;6.140;2023-03-04T01:16:11;11.40;;;3.25;;
15806;SDS011;8005;51.368;6.140;2023-03-04T01:17:53;14.63;;;3.97;;
15806;SDS011;8005;51.368;6.140;2023-03-04T01:19:31;19.95;;;3.83;;
15806;SDS011;8005;51.368;6.140;2023-03-04T01:21:12;17.15;;;3.03;;
15806;SDS011;8005;51.368;6.140;2023-03-04T01:23:03;12.75;;;3.20;;
15806;SDS011;8005;51.368;6.140;2023-03-04T01:24:47;15.38;;;3.33;;
15806;SDS011;8005;51.368;6.140;2023-03-04T01:26:41;16.00;;;3.35;;
15806;SDS011;8005;51.368;6.140;2023-03-04T01:28:15;14.57;;;3.08;;
15806;SDS011;8005;51.368;6.140;2023-03-04T01:29:47;13.85;;;3.22;;
15806;SDS011;8005;51.368;6.140;2023-03-04T01:31:24;16.35;;;3.00;;
15806;SDS011;8005;51.368;6.140;2023-03-04T01:33:09;16.35;;;3.92;;
15806;SDS011;8005;51.368;6.140;2023-03-04T01:34:42;9.88;;;2.55;;
15806;SDS011;8005;51.368;6.140;2023-03-04T01:36:23;20.67;;;2.95;;
15806;SDS011;8005;51.368;6.140;2023-03-04T01:41:48;13.73;;;3.47;;
15806;SDS011;8005;51.368;6.140;2023-03-04T02:27:10;17.23;;;2.97;;
15806;SDS011;8005;51.368;6.140;2023-03-04T02:29:01;11.45;;;3.20;;
15806;SDS011;8005;51.368;6.140;2023-03-04T02:30:36;13.93;;;2.53;;
15806;SDS011;8005;51.368;6.140;2023-03-04T02:32:37;14.80;;;3.78;;
15806;SDS011;8005;51.368;6.140;2023-03-04T02:34:16;18.77;;;3.05;;
15806;SDS011;8005;51.368;6.140;2023-03-04T02:36:10;17.27;;;2.92;;
15806;SDS011;8005;51.368;6.140;2023-03-04T02:38:00;19.67;;;2.65;;
15806;SDS011;8005;51.368;6.140;2023-03-04T02:39:33;16.58;;;2.80;;
15806;SDS011;8005;51.368;6.140;2023-03-04T02:46:29;19.65;;;2.63;;
15806;SDS011;8005;51.368;6.140;2023-03-04T02:48:40;12.75;;;3.30;;
15806;SDS011;8005;51.368;6.140;2023-03-04T02:50:18;16.67;;;2.63;;
15806;SDS011;8005;51.368;6.140;2023-03-04T02:52:39;13.18;;;3.40;;
15806;SDS011;8005;51.368;6.140;2023-03-04T02:54:56;14.02;;;2.72;;
15806;SDS011;8005;51.368;6.140;2023-03-04T02:56:31;15.10;;;3.40;;
15806;SDS011;8005;51.368;6.140;2023-03-04T03:01:27;21.23;;;3.58;;
15806;SDS011;8005;51.368;6.140;2023-03-04T03:03:17;21.50;;;2.97;;
15806;SDS011;8005;51.368;6.140;2023-03-04T03:05:43;19.17;;;3.38;;
15806;SDS011;8005;51.368;6.140;2023-03-04T03:07:34;22.20;;;3.28;;
15806;SDS011;8005;51.368;6.140;2023-03-04T03:09:49;15.98;;;3.50;;
15806;SDS011;8005;51.368;6.140;2023-03-04T03:12:02;20.48;;;3.70;;
15806;SDS011;8005;51.368;6.140;2023-03-04T03:45:54;2.50;;;0.40;;
15806;SDS011;8005;51.368;6.140;2023-03-04T03:51:27;15.05;;;2.70;;
15806;SDS011;8005;51.368;6.140;2023-03-04T03:54:02;15.85;;;2.67;;
15806;SDS011;8005;51.368;6.140;2023-03-04T03:55:38;9.88;;;1.67;;
15806;SDS011;8005;51.368;6.140;2023-03-04T03:57:12;11.13;;;2.05;;
15806;SDS011;8005;51.368;6.140;2023-03-04T03:58:44;16.58;;;2.15;;
15806;SDS011;8005;51.368;6.140;2023-03-04T04:00:17;9.30;;;2.33;;
15806;SDS011;8005;51.368;6.140;2023-03-04T04:01:49;15.15;;;2.33;;
15806;SDS011;8005;51.368;6.140;2023-03-04T04:03:22;10.45;;;2.22;;
15806;SDS011;8005;51.368;6.140;2023-03-04T04:04:54;15.55;;;3.05;;
15806;SDS011;8005;51.368;6.140;2023-03-04T04:06:26;13.40;;;2.80;;
15806;SDS011;8005;51.368;6.140;2023-03-04T04:07:58;15.40;;;1.88;;
15806;SDS011;8005;51.368;6.140;2023-03-04T04:09:34;11.77;;;2.67;;
15806;SDS011;8005;51.368;6.140;2023-03-04T04:11:10;14.25;;;2.00;;
15806;SDS011;8005;51.368;6.140;2023-03-04T04:12:47;17.27;;;1.98;;
15806;SDS011;8005;51.368;6.140;2023-03-04T04:14:37;7.43;;;1.77;;
15806;SDS011;8005;51.368;6.140;2023-03-04T04:16:16;18.38;;;2.00;;
15806;SDS011;8005;51.368;6.140;2023-03-04T04:17:48;13.85;;;2.13;;
15806;SDS011;8005;51.368;6.140;2023-03-04T04:19:20;12.05;;;1.80;;
15806;SDS011;8005;51.368;6.140;2023-03-04T04:20:55;7.88;;;1.25;;
15806;SDS011;8005;51.368;6.140;2023-03-04T04:22:27;15.05;;;2.15;;
15806;SDS011;8005;51.368;6.140;2023-03-04T04:23:59;10.77;;;3.08;;
15806;SDS011;8005;51.368;6.140;2023-03-04T04:25:36;11.30;;;1.38;;
15806;SDS011;8005;51.368;6.140;2023-03-04T04:27:20;9.02;;;1.58;;
15806;SDS011;8005;51.368;6.140;2023-03-04T04:28:58;6.70;;;2.08;;
15806;SDS011;8005;51.368;6.140;2023-03-04T04:30:30;17.40;;;1.95;;
15806;SDS011;8005;51.368;6.140;2023-03-04T04:32:04;12.40;;;2.00;;
15806;SDS011;8005;51.368;6.140;2023-03-04T04:33:37;10.80;;;1.98;;
15806;SDS011;8005;51.368;6.140;2023-03-04T04:35:09;14.07;;;2.95;;
15806;SDS011;8005;51.368;6.140;2023-03-04T04:36:41;16.33;;;2.00;;
15806;SDS011;8005;51.368;6.140;2023-03-04T04:38:14;14.18;;;3.40;;
15806;SDS011;8005;51.368;6.140;2023-03-04T04:39:46;18.70;;;2.72;;
15806;SDS011;8005;51.368;6.140;2023-03-04T04:41:48;14.88;;;2.42;;
15806;SDS011;8005;51.368;6.140;2023-03-04T04:43:20;14.35;;;2.65;;
15806;SDS011;8005;51.368;6.140;2023-03-04T04:44:55;15.35;;;3.13;;
15806;SDS011;8005;51.368;6.140;2023-03-04T04:46:32;12.75;;;2.38;;
15806;SDS011;8005;51.368;6.140;2023-03-04T04:48:12;13.85;;;2.45;;
15806;SDS011;8005;51.368;6.140;2023-03-04T04:50:05;9.10;;;2.38;;
15806;SDS011;8005;51.368;6.140;2023-03-04T04:55:09;6.22;;;1.73;;
15806;SDS011;8005;51.368;6.140;2023-03-04T04:57:17;13.98;;;2.15;;
15806;SDS011;8005;51.368;6.140;2023-03-04T04:59:04;14.52;;;2.97;;
15806;SDS011;8005;51.368;6.140;2023-03-04T05:00:45;7.75;;;1.63;;
15806;SDS011;8005;51.368;6.140;2023-03-04T05:02:28;9.32;;;1.77;;
15806;SDS011;8005;51.368;6.140;2023-03-04T05:04:25;12.07;;;2.28;;
15806;SDS011;8005;51.368;6.140;2023-03-04T05:06:50;7.05;;;1.55;;
15806;SDS011;8005;51.368;6.140;2023-03-04T05:09:11;9.40;;;1.90;;
15806;SDS011;8005;51.368;6.140;2023-03-04T05:11:11;11.27;;;2.10;;
15806;SDS011;8005;51.368;6.140;2023-03-04T05:12:46;14.10;;;1.95;;
15806;SDS011;8005;51.368;6.140;2023-03-04T05:14:24;13.05;;;2.78;;
15806;SDS011;8005;51.368;6.140;2023-03-04T05:16:12;17.17;;;2.17;;
15806;SDS011;8005;51.368;6.140;2023-03-04T05:17:45;9.75;;;1.98;;
15806;SDS011;8005;51.368;6.140;2023-03-04T05:19:28;11.85;;;1.67;;
15806;SDS011;8005;51.368;6.140;2023-03-04T05:21:06;15.43;;;2.60;;
15806;SDS011;8005;51.368;6.140;2023-03-04T05:22:38;8.80;;;1.70;;
15806;SDS011;8005;51.368;6.140;2023-03-04T05:24:10;12.40;;;1.92;;
15806;SDS011;8005;51.368;6.140;2023-03-04T05:25:45;15.85;;;2.00;;
15806;SDS011;8005;51.368;6.140;2023-03-04T05:27:17;8.82;;;1.98;;
15806;SDS011;8005;51.368;6.140;2023-03-04T05:36:30;17.17;;;2.85;;
15806;SDS011;8005;51.368;6.140;2023-03-04T05:47:15;12.82;;;1.73;;
15806;SDS011;8005;51.368;6.140;2023-03-04T05:49:10;7.95;;;2.15;;
15806;SDS011;8005;51.368;6.140;2023-03-04T05:50:52;10.05;;;2.60;;
15806;SDS011;8005;51.368;6.140;2023-03-04T05:52:27;12.15;;;2.20;;
15806;SDS011;8005;51.368;6.140;2023-03-04T05:54:21;12.48;;;1.60;;
15806;SDS011;8005;51.368;6.140;2023-03-04T05:57:37;10.63;;;1.77;;
15806;SDS011;8005;51.368;6.140;2023-03-04T05:59:38;15.13;;;3.65;;
15806;SDS011;8005;51.368;6.140;2023-03-04T06:01:21;9.88;;;1.88;;
15806;SDS011;8005;51.368;6.140;2023-03-04T06:07:12;13.68;;;1.75;;
15806;SDS011;8005;51.368;6.140;2023-03-04T06:11:58;13.88;;;1.70;;
15806;SDS011;8005;51.368;6.140;2023-03-04T06:13:31;8.63;;;1.70;;
15806;SDS011;8005;51.368;6.140;2023-03-04T06:15:07;15.15;;;2.28;;
15806;SDS011;8005;51.368;6.140;2023-03-04T06:16:45;15.02;;;2.35;;
15806;SDS011;8005;51.368;6.140;2023-03-04T06:18:17;12.10;;;2.58;;
15806;SDS011;8005;51.368;6.140;2023-03-04T06:19:50;13.32;;;3.63;;
15806;SDS011;8005;51.368;6.140;2023-03-04T06:21:53;15.15;;;2.78;;
15806;SDS011;8005;51.368;6.140;2023-03-04T06:23:27;11.80;;;1.30;;
15806;SDS011;8005;51.368;6.140;2023-03-04T06:27:04;11.80;;;1.75;;
15806;SDS011;8005;51.368;6.140;2023-03-04T06:37:16;10.55;;;1.95;;
15806;SDS011;8005;51.368;6.140;2023-03-04T06:39:52;11.20;;;1.92;;
15806;SDS011;8005;51.368;6.140;2023-03-04T06:42:25;12.00;;;1.80;;
15806;SDS011;8005;51.368;6.140;2023-03-04T09:47:36;10.57;;;1.52;;
15806;SDS011;8005;51.368;6.140;2023-03-04T09:49:17;6.60;;;1.27;;
15806;SDS011;8005;51.368;6.140;2023-03-04T09:51:02;3.65;;;1.23;;
15806;SDS011;8005;51.368;6.140;2023-03-04T09:57:20;5.10;;;1.33;;
15806;SDS011;8005;51.368;6.140;2023-03-04T09:59:11;7.97;;;1.42;;
15806;SDS011;8005;51.368;6.140;2023-03-04T10:00:51;6.45;;;1.50;;
15806;SDS011;8005;51.368;6.140;2023-03-04T10:04:52;8.75;;;1.58;;
15806;SDS011;8005;51.368;6.140;2023-03-04T10:06:30;6.78;;;1.10;;
15806;SDS011;8005;51.368;6.140;2023-03-04T10:10:12;9.07;;;1.48;;
15806;SDS011;8005;51.368;6.140;2023-03-04T10:12:23;7.18;;;1.45;;
15806;SDS011;8005;51.368;6.140;2023-03-04T10:15:30;7.20;;;1.65;;
15806;SDS011;8005;51.368;6.140;2023-03-04T10:17:16;6.10;;;1.02;;
15806;SDS011;8005;51.368;6.140;2023-03-04T10:24:10;3.03;;;0.98;;
15806;SDS011;8005;51.368;6.140;2023-03-04T10:25:47;4.53;;;1.08;;
15806;SDS011;8005;51.368;6.140;2023-03-04T10:27:24;3.53;;;1.30;;
15806;SDS011;8005;51.368;6.140;2023-03-04T10:28:56;4.47;;;1.02;;
15806;SDS011;8005;51.368;6.140;2023-03-04T10:32:23;4.33;;;1.13;;
15806;SDS011;8005;51.368;6.140;2023-03-04T10:33:55;4.65;;;0.88;;
15806;SDS011;8005;51.368;6.140;2023-03-04T10:35:32;3.97;;;0.80;;
15806;SDS011;8005;51.368;6.140;2023-03-04T10:37:09;5.10;;;0.98;;
15806;SDS011;8005;51.368;6.140;2023-03-04T10:38:42;5.05;;;2.35;;
15806;SDS011;8005;51.368;6.140;2023-03-04T10:40:22;8.38;;;1.58;;
15806;SDS011;8005;51.368;6.140;2023-03-04T10:41:57;5.80;;;1.55;;
15806;SDS011;8005;51.368;6.140;2023-03-04T10:43:31;5.72;;;0.90;;
15806;SDS011;8005;51.368;6.140;2023-03-04T10:46:56;5.55;;;0.93;;
15806;SDS011;8005;51.368;6.140;2023-03-04T10:48:29;7.30;;;1.35;;
15806;SDS011;8005;51.368;6.140;2023-03-04T10:50:04;5.50;;;0.85;;
15806;SDS011;8005;51.368;6.140;2023-03-04T10:51:41;3.40;;;0.93;;
15806;SDS011;8005;51.368;6.140;2023-03-04T10:53:36;7.00;;;1.50;;
15806;SDS011;8005;51.368;6.140;2023-03-04T10:55:13;6.95;;;1.30;;
15806;SDS011;8005;51.368;6.140;2023-03-04T10:58:26;7.00;;;1.13;;
15806;SDS011;8005;51.368;6.140;2023-03-04T11:00:03;9.90;;;1.33;;
15806;SDS011;8005;51.368;6.140;2023-03-04T11:01:49;3.70;;;1.13;;
15806;SDS011;8005;51.368;6.140;2023-03-04T11:07:00;3.58;;;0.95;;
15806;SDS011;8005;51.368;6.140;2023-03-04T11:08:34;1.83;;;0.55;;
15806;SDS011;8005;51.368;6.140;2023-03-04T11:10:21;3.58;;;0.90;;
15806;SDS011;8005;51.368;6.140;2023-03-04T11:12:00;6.60;;;0.98;;
15806;SDS011;8005;51.368;6.140;2023-03-04T11:13:33;7.38;;;1.00;;
15806;SDS011;8005;51.368;6.140;2023-03-04T11:15:16;4.40;;;0.80;;
15806;SDS011;8005;51.368;6.140;2023-03-04T11:16:56;5.10;;;0.90;;
15806;SDS011;8005;51.368;6.140;2023-03-04T11:18:38;2.53;;;0.80;;
15806;SDS011;8005;51.368;6.140;2023-03-04T11:20:17;3.63;;;0.82;;
15806;SDS011;8005;51.368;6.140;2023-03-04T11:21:57;4.65;;;0.70;;
15806;SDS011;8005;51.368;6.140;2023-03-04T11:23:38;5.00;;;1.02;;
15806;SDS011;8005;51.368;6.140;2023-03-04T11:25:25;4.25;;;0.65;;
15806;SDS011;8005;51.368;6.140;2023-03-04T11:27:05;6.35;;;0.70;;
15806;SDS011;8005;51.368;6.140;2023-03-04T11:32:33;3.00;;;1.00;;
15806;SDS011;8005;51.368;6.140;2023-03-04T11:34:26;4.15;;;1.13;;
15806;SDS011;8005;51.368;6.140;2023-03-04T11:36:07;2.90;;;0.80;;
15806;SDS011;8005;51.368;6.140;2023-03-04T11:38:11;3.80;;;0.75;;
15806;SDS011;8005;51.368;6.140;2023-03-04T11:41:53;3.20;;;1.00;;
15806;SDS011;8005;51.368;6.140;2023-03-04T11:51:13;3.60;;;0.90;;
15806;SDS011;8005;51.368;6.140;2023-03-04T12:02:58;4.50;;;0.90;;
15806;SDS011;8005;51.368;6.140;2023-03-04T12:09:13;3.50;;;0.90;;
15806;SDS011;8005;51.368;6.140;2023-03-04T12:34:08;3.60;;;2.25;;
15806;SDS011;8005;51.368;6.140;2023-03-04T13:24:12;3.33;;;1.08;;
15806;SDS011;8005;51.368;6.140;2023-03-04T13:29:19;6.25;;;2.10;;
15806;SDS011;8005;51.368;6.140;2023-03-04T13:31:18;2.42;;;1.08;;
15806;SDS011;8005;51.368;6.140;2023-03-04T13:35:57;2.03;;;0.90;;
15806;SDS011;8005;51.368;6.140;2023-03-04T13:50:28;3.03;;;0.85;;
15806;SDS011;8005;51.368;6.140;2023-03-04T13:52:36;1.90;;;0.95;;
15806;SDS011;8005;51.368;6.140;2023-03-04T13:56:04;3.28;;;1.02;;
15806;SDS011;8005;51.368;6.140;2023-03-04T13:57:57;1.50;;;0.73;;
15806;SDS011;8005;51.368;6.140;2023-03-04T13:59:53;2.45;;;0.85;;
15806;SDS011;8005;51.368;6.140;2023-03-04T14:04:31;4.80;;;1.13;;
15806;SDS011;8005;51.368;6.140;2023-03-04T14:06:11;2.72;;;1.08;;
15806;SDS011;8005;51.368;6.140;2023-03-04T16:06:11;5.90;;;0.93;;
15806;SDS011;8005;51.368;6.140;2023-03-04T16:08:20;4.03;;;1.02;;
15806;SDS011;8005;51.368;6.140;2023-03-04T16:16:59;3.40;;;0.80;;
15806;SDS011;8005;51.368;6.140;2023-03-04T16:21:50;4.53;;;0.98;;
15806;SDS011;8005;51.368;6.140;2023-03-04T16:23:46;5.70;;;1.90;;
15806;SDS011;8005;51.368;6.140;2023-03-04T16:29:35;6.47;;;1.60;;
15806;SDS011;8005;51.368;6.140;2023-03-04T16:31:23;6.88;;;1.08;;
15806;SDS011;8005;51.368;6.140;2023-03-04T16:33:43;4.85;;;0.95;;
15806;SDS011;8005;51.368;6.140;2023-03-04T16:36:24;6.80;;;1.30;;
15806;SDS011;8005;51.368;6.140;2023-03-04T17:02:31;4.78;;;0.50;;
15806;SDS011;8005;51.368;6.140;2023-03-04T17:04:10;6.40;;;0.50;;
15806;SDS011;8005;51.368;6.140;2023-03-04T17:05:44;6.90;;;0.80;;
15806;SDS011;8005;51.368;6.140;2023-03-04T17:07:43;10.93;;;1.40;;
15806;SDS011;8005;51.368;6.140;2023-03-04T17:09:18;4.38;;;0.60;;
15806;SDS011;8005;51.368;6.140;2023-03-04T17:12:49;4.30;;;0.50;;
15806;SDS011;8005;51.368;6.140;2023-03-04T17:14:29;2.67;;;0.52;;
15806;SDS011;8005;51.368;6.140;2023-03-04T17:16:04;5.45;;;1.08;;
15806;SDS011;8005;51.368;6.140;2023-03-04T17:17:40;7.40;;;0.70;;
15806;SDS011;8005;51.368;6.140;2023-03-04T17:19:38;5.45;;;0.60;;
15806;SDS011;8005;51.368;6.140;2023-03-04T17:21:39;7.43;;;1.33;;
15806;SDS011;8005;51.368;6.140;2023-03-04T17:23:17;4.28;;;0.95;;
15806;SDS011;8005;51.368;6.140;2023-03-04T17:24:53;4.95;;;0.88;;
15806;SDS011;8005;51.368;6.140;2023-03-04T17:26:34;4.72;;;0.90;;
15806;SDS011;8005;51.368;6.140;2023-03-04T17:28:29;3.47;;;0.60;;
15806;SDS011;8005;51.368;6.140;2023-03-04T17:30:02;2.97;;;0.80;;
15806;SDS011;8005;51.368;6.140;2023-03-04T17:31:35;2.30;;;0.57;;
15806;SDS011;8005;51.368;6.140;2023-03-04T17:33:07;3.22;;;0.65;;
15806;SDS011;8005;51.368;6.140;2023-03-04T17:34:41;4.72;;;0.88;;
15806;SDS011;8005;51.368;6.140;2023-03-04T17:36:15;7.33;;;1.10;;
15806;SDS011;8005;51.368;6.140;2023-03-04T17:38:35;5.00;;;1.02;;
15806;SDS011;8005;51.368;6.140;2023-03-04T17:44:15;3.90;;;0.47;;
15806;SDS011;8005;51.368;6.140;2023-03-04T18:32:32;4.33;;;1.00;;
15806;SDS011;8005;51.368;6.140;2023-03-04T18:37:24;3.72;;;1.38;;
15806;SDS011;8005;51.368;6.140;2023-03-04T18:40:10;4.45;;;1.33;;
15806;SDS011;8005;51.368;6.140;2023-03-04T18:45:37;6.35;;;1.70;;
15806;SDS011;8005;51.368;6.140;2023-03-04T18:47:56;6.45;;;1.40;;
15806;SDS011;8005;51.368;6.140;2023-03-04T18:49:29;5.43;;;0.90;;
15806;SDS011;8005;51.368;6.140;2023-03-04T18:51:04;3.08;;;0.90;;
15806;SDS011;8005;51.368;6.140;2023-03-04T18:53:03;4.63;;;1.02;;
15806;SDS011;8005;51.368;6.140;2023-03-04T18:54:35;7.65;;;1.17;;
15806;SDS011;8005;51.368;6.140;2023-03-04T18:58:20;5.20;;;0.95;;
15806;SDS011;8005;51.368;6.140;2023-03-04T19:04:53;3.55;;;1.05;;
15806;SDS011;8005;51.368;6.140;2023-03-04T19:18:36;4.20;;;1.00;;
15806;SDS011;8005;51.368;6.140;2023-03-04T19:21:13;6.80;;;0.75;;
15806;SDS011;8005;51.368;6.140;2023-03-04T19:23:51;6.28;;;1.05;;
15806;SDS011;8005;51.368;6.140;2023-03-04T19:55:05;4.40;;;0.98;;
15806;SDS011;8005;51.368;6.140;2023-03-04T20:23:58;5.18;;;1.65;;
15806;SDS011;8005;51.368;6.140;2023-03-04T20:32:09;7.45;;;2.08;;
15806;SDS011;8005;51.368;6.140;2023-03-04T20:37:43;7.72;;;1.23;;
15806;SDS011;8005;51.368;6.140;2023-03-04T20:39:27;5.35;;;1.10;;
